sensor_id;sensor_type;location;lat;lon;timestamp;P1;durP1;ratioP1;P2;durP2;ratioP2
23288;SDS011;11813;50.834;4.280;2023-03-25T00:02:19;4.87;;;1.50;;
23288;SDS011;11813;50.834;4.280;2023-03-25T00:04:48;2.30;;;1.10;;
23288;SDS011;11813;50.834;4.280;2023-03-25T00:07:15;5.80;;;2.07;;
23288;SDS011;11813;50.834;4.280;2023-03-25T00:09:42;5.03;;;1.67;;
23288;SDS011;11813;50.834;4.280;2023-03-25T00:12:08;4.60;;;1.60;;
23288;SDS011;11813;50.834;4.280;2023-03-25T00:14:33;3.37;;;1.37;;
23288;SDS011;11813;50.834;4.280;2023-03-25T00:16:59;2.00;;;1.23;;
23288;SDS011;11813;50.834;4.280;2023-03-25T00:19:25;5.33;;;1.70;;
23288;SDS011;11813;50.834;4.280;2023-03-25T00:21:51;4.77;;;1.17;;
23288;SDS011;11813;50.834;4.280;2023-03-25T00:24:18;3.70;;;1.30;;
23288;SDS011;11813;50.834;4.280;2023-03-25T00:26:44;2.50;;;1.07;;
23288;SDS011;11813;50.834;4.280;2023-03-25T00:29:13;6.63;;;1.70;;
23288;SDS011;11813;50.834;4.280;2023-03-25T00:31:39;4.17;;;1.20;;
23288;SDS011;11813;50.834;4.280;2023-03-25T00:34:05;3.20;;;1.20;;
23288;SDS011;11813;50.834;4.280;2023-03-25T00:36:31;6.53;;;1.50;;
23288;SDS011;11813;50.834;4.280;2023-03-25T00:38:57;4.17;;;1.37;;
23288;SDS011;11813;50.834;4.280;2023-03-25T00:41:23;3.80;;;1.43;;
23288;SDS011;11813;50.834;4.280;2023-03-25T00:43:50;3.20;;;1.30;;
23288;SDS011;11813;50.834;4.280;2023-03-25T00:46:17;5.40;;;1.30;;
23288;SDS011;11813;50.834;4.280;2023-03-25T00:48:42;10.83;;;1.70;;
23288;SDS011;11813;50.834;4.280;2023-03-25T00:51:09;4.00;;;1.13;;
23288;SDS011;11813;50.834;4.280;2023-03-25T00:53:37;6.17;;;2.00;;
23288;SDS011;11813;50.834;4.280;2023-03-25T00:56:03;7.90;;;1.70;;
23288;SDS011;11813;50.834;4.280;2023-03-25T00:58:29;3.73;;;1.27;;
23288;SDS011;11813;50.834;4.280;2023-03-25T01:00:55;7.17;;;1.50;;
23288;SDS011;11813;50.834;4.280;2023-03-25T01:03:22;7.47;;;1.67;;
23288;SDS011;11813;50.834;4.280;2023-03-25T01:05:49;4.87;;;1.60;;
23288;SDS011;11813;50.834;4.280;2023-03-25T01:08:18;9.03;;;1.43;;
23288;SDS011;11813;50.834;4.280;2023-03-25T01:10:49;5.50;;;1.80;;
23288;SDS011;11813;50.834;4.280;2023-03-25T01:13:20;5.97;;;2.10;;
23288;SDS011;11813;50.834;4.280;2023-03-25T01:15:47;6.60;;;1.80;;
23288;SDS011;11813;50.834;4.280;2023-03-25T01:18:13;8.30;;;1.67;;
23288;SDS011;11813;50.834;4.280;2023-03-25T01:20:39;7.23;;;1.90;;
23288;SDS011;11813;50.834;4.280;2023-03-25T01:23:05;8.63;;;2.17;;
23288;SDS011;11813;50.834;4.280;2023-03-25T01:25:33;6.27;;;1.60;;
23288;SDS011;11813;50.834;4.280;2023-03-25T01:27:59;3.90;;;1.30;;
23288;SDS011;11813;50.834;4.280;2023-03-25T01:30:25;6.60;;;1.80;;
23288;SDS011;11813;50.834;4.280;2023-03-25T01:32:51;3.90;;;1.53;;
23288;SDS011;11813;50.834;4.280;2023-03-25T01:35:16;5.23;;;1.70;;
23288;SDS011;11813;50.834;4.280;2023-03-25T01:37:42;8.43;;;2.73;;
23288;SDS011;11813;50.834;4.280;2023-03-25T01:40:09;10.70;;;2.43;;
23288;SDS011;11813;50.834;4.280;2023-03-25T01:42:40;6.27;;;3.10;;
23288;SDS011;11813;50.834;4.280;2023-03-25T01:45:10;9.73;;;2.07;;
23288;SDS011;11813;50.834;4.280;2023-03-25T01:47:55;4.93;;;1.83;;
23288;SDS011;11813;50.834;4.280;2023-03-25T01:50:51;5.30;;;1.57;;
23288;SDS011;11813;50.834;4.280;2023-03-25T01:53:20;3.90;;;1.73;;
23288;SDS011;11813;50.834;4.280;2023-03-25T01:55:46;11.07;;;2.37;;
23288;SDS011;11813;50.834;4.280;2023-03-25T01:58:13;5.17;;;1.67;;
23288;SDS011;11813;50.834;4.280;2023-03-25T02:00:42;10.23;;;1.80;;
23288;SDS011;11813;50.834;4.280;2023-03-25T02:03:10;9.10;;;1.50;;
23288;SDS011;11813;50.834;4.280;2023-03-25T02:08:11;8.07;;;1.57;;
23288;SDS011;11813;50.834;4.280;2023-03-25T02:10:39;8.80;;;2.30;;
23288;SDS011;11813;50.834;4.280;2023-03-25T02:13:08;7.57;;;1.40;;
23288;SDS011;11813;50.834;4.280;2023-03-25T02:16:10;5.10;;;1.53;;
23288;SDS011;11813;50.834;4.280;2023-03-25T02:24:17;5.30;;;1.53;;
23288;SDS011;11813;50.834;4.280;2023-03-25T02:27:16;9.10;;;1.60;;
23288;SDS011;11813;50.834;4.280;2023-03-25T02:32:35;4.50;;;1.40;;
23288;SDS011;11813;50.834;4.280;2023-03-25T02:35:38;3.23;;;1.27;;
23288;SDS011;11813;50.834;4.280;2023-03-25T02:38:36;5.57;;;1.47;;
23288;SDS011;11813;50.834;4.280;2023-03-25T02:41:12;9.03;;;1.77;;
23288;SDS011;11813;50.834;4.280;2023-03-25T02:46:27;4.70;;;1.27;;
23288;SDS011;11813;50.834;4.280;2023-03-25T02:51:29;5.70;;;2.17;;
23288;SDS011;11813;50.834;4.280;2023-03-25T02:54:01;5.03;;;1.50;;
23288;SDS011;11813;50.834;4.280;2023-03-25T02:56:32;3.20;;;1.23;;
23288;SDS011;11813;50.834;4.280;2023-03-25T02:58:59;4.53;;;1.43;;
23288;SDS011;11813;50.834;4.280;2023-03-25T03:01:26;6.77;;;1.17;;
23288;SDS011;11813;50.834;4.280;2023-03-25T03:03:53;8.37;;;1.57;;
23288;SDS011;11813;50.834;4.280;2023-03-25T03:06:18;10.00;;;1.40;;
23288;SDS011;11813;50.834;4.280;2023-03-25T03:14:07;6.30;;;1.63;;
23288;SDS011;11813;50.834;4.280;2023-03-25T03:27:48;10.17;;;1.90;;
23288;SDS011;11813;50.834;4.280;2023-03-25T03:30:24;10.40;;;1.70;;
23288;SDS011;11813;50.834;4.280;2023-03-25T03:33:14;5.90;;;1.87;;
23288;SDS011;11813;50.834;4.280;2023-03-25T03:38:55;7.30;;;1.63;;
23288;SDS011;11813;50.834;4.280;2023-03-25T03:41:29;8.07;;;1.83;;
23288;SDS011;11813;50.834;4.280;2023-03-25T03:44:01;9.77;;;2.20;;
23288;SDS011;11813;50.834;4.280;2023-03-25T03:46:36;6.73;;;2.10;;
23288;SDS011;11813;50.834;4.280;2023-03-25T03:49:07;13.80;;;2.13;;
23288;SDS011;11813;50.834;4.280;2023-03-25T03:51:37;9.57;;;1.80;;
23288;SDS011;11813;50.834;4.280;2023-03-25T03:54:12;8.47;;;2.13;;
23288;SDS011;11813;50.834;4.280;2023-03-25T03:56:43;9.50;;;1.90;;
23288;SDS011;11813;50.834;4.280;2023-03-25T03:59:24;9.63;;;1.97;;
23288;SDS011;11813;50.834;4.280;2023-03-25T04:02:26;10.23;;;2.00;;
23288;SDS011;11813;50.834;4.280;2023-03-25T04:05:13;12.57;;;2.33;;
23288;SDS011;11813;50.834;4.280;2023-03-25T04:07:52;12.07;;;2.20;;
23288;SDS011;11813;50.834;4.280;2023-03-25T04:10:38;8.43;;;1.90;;
23288;SDS011;11813;50.834;4.280;2023-03-25T04:13:17;10.43;;;2.17;;
23288;SDS011;11813;50.834;4.280;2023-03-25T04:15:45;10.03;;;2.20;;
23288;SDS011;11813;50.834;4.280;2023-03-25T04:18:11;14.63;;;2.60;;
23288;SDS011;11813;50.834;4.280;2023-03-25T04:20:37;11.70;;;1.93;;
23288;SDS011;11813;50.834;4.280;2023-03-25T04:23:09;10.63;;;1.97;;
23288;SDS011;11813;50.834;4.280;2023-03-25T04:25:45;5.53;;;1.77;;
23288;SDS011;11813;50.834;4.280;2023-03-25T04:28:13;10.70;;;3.00;;
23288;SDS011;11813;50.834;4.280;2023-03-25T04:30:42;12.13;;;2.07;;
23288;SDS011;11813;50.834;4.280;2023-03-25T04:33:09;14.57;;;2.50;;
23288;SDS011;11813;50.834;4.280;2023-03-25T04:35:36;6.73;;;1.97;;
23288;SDS011;11813;50.834;4.280;2023-03-25T04:38:02;11.20;;;2.60;;
23288;SDS011;11813;50.834;4.280;2023-03-25T04:40:29;9.37;;;2.47;;
23288;SDS011;11813;50.834;4.280;2023-03-25T04:42:55;10.43;;;2.03;;
23288;SDS011;11813;50.834;4.280;2023-03-25T04:45:21;11.50;;;2.20;;
23288;SDS011;11813;50.834;4.280;2023-03-25T04:47:49;5.83;;;2.20;;
23288;SDS011;11813;50.834;4.280;2023-03-25T04:50:22;5.13;;;2.23;;
23288;SDS011;11813;50.834;4.280;2023-03-25T04:52:49;12.23;;;2.33;;
23288;SDS011;11813;50.834;4.280;2023-03-25T04:55:17;16.27;;;2.43;;
23288;SDS011;11813;50.834;4.280;2023-03-25T04:57:46;9.03;;;2.37;;
23288;SDS011;11813;50.834;4.280;2023-03-25T05:00:14;7.47;;;2.20;;
23288;SDS011;11813;50.834;4.280;2023-03-25T05:02:49;14.70;;;2.30;;
23288;SDS011;11813;50.834;4.280;2023-03-25T05:05:19;9.77;;;2.50;;
23288;SDS011;11813;50.834;4.280;2023-03-25T05:07:48;9.77;;;1.63;;
23288;SDS011;11813;50.834;4.280;2023-03-25T05:10:15;8.67;;;2.37;;
23288;SDS011;11813;50.834;4.280;2023-03-25T05:12:41;14.20;;;2.10;;
23288;SDS011;11813;50.834;4.280;2023-03-25T05:15:08;8.70;;;2.37;;
23288;SDS011;11813;50.834;4.280;2023-03-25T05:17:35;9.47;;;1.73;;
23288;SDS011;11813;50.834;4.280;2023-03-25T05:20:01;6.80;;;1.47;;
23288;SDS011;11813;50.834;4.280;2023-03-25T05:22:30;9.10;;;1.53;;
23288;SDS011;11813;50.834;4.280;2023-03-25T05:24:56;8.77;;;2.37;;
23288;SDS011;11813;50.834;4.280;2023-03-25T05:27:22;11.20;;;1.80;;
23288;SDS011;11813;50.834;4.280;2023-03-25T05:29:47;5.77;;;2.00;;
23288;SDS011;11813;50.834;4.280;2023-03-25T05:32:13;10.23;;;1.80;;
23288;SDS011;11813;50.834;4.280;2023-03-25T05:34:41;7.30;;;1.90;;
23288;SDS011;11813;50.834;4.280;2023-03-25T05:37:11;9.63;;;1.90;;
23288;SDS011;11813;50.834;4.280;2023-03-25T05:39:38;13.27;;;2.13;;
23288;SDS011;11813;50.834;4.280;2023-03-25T05:42:03;11.67;;;2.10;;
23288;SDS011;11813;50.834;4.280;2023-03-25T05:44:29;12.70;;;2.07;;
23288;SDS011;11813;50.834;4.280;2023-03-25T05:46:54;11.67;;;2.57;;
23288;SDS011;11813;50.834;4.280;2023-03-25T05:49:20;12.70;;;2.50;;
23288;SDS011;11813;50.834;4.280;2023-03-25T05:51:45;13.00;;;2.07;;
23288;SDS011;11813;50.834;4.280;2023-03-25T05:54:13;7.30;;;1.80;;
23288;SDS011;11813;50.834;4.280;2023-03-25T05:56:39;9.93;;;2.20;;
23288;SDS011;11813;50.834;4.280;2023-03-25T05:59:06;17.40;;;2.10;;
23288;SDS011;11813;50.834;4.280;2023-03-25T06:01:33;6.00;;;2.13;;
23288;SDS011;11813;50.834;4.280;2023-03-25T06:04:02;10.73;;;2.80;;
23288;SDS011;11813;50.834;4.280;2023-03-25T06:06:29;9.97;;;2.03;;
23288;SDS011;11813;50.834;4.280;2023-03-25T06:08:55;7.73;;;2.03;;
23288;SDS011;11813;50.834;4.280;2023-03-25T06:11:21;6.03;;;2.00;;
23288;SDS011;11813;50.834;4.280;2023-03-25T06:13:47;11.40;;;2.33;;
23288;SDS011;11813;50.834;4.280;2023-03-25T06:16:17;14.80;;;2.70;;
23288;SDS011;11813;50.834;4.280;2023-03-25T06:18:45;6.27;;;2.20;;
23288;SDS011;11813;50.834;4.280;2023-03-25T06:21:15;8.90;;;2.33;;
23288;SDS011;11813;50.834;4.280;2023-03-25T06:23:41;8.27;;;2.20;;
23288;SDS011;11813;50.834;4.280;2023-03-25T06:26:07;6.50;;;2.20;;
23288;SDS011;11813;50.834;4.280;2023-03-25T06:28:33;12.30;;;2.63;;
23288;SDS011;11813;50.834;4.280;2023-03-25T06:30:58;9.60;;;1.83;;
23288;SDS011;11813;50.834;4.280;2023-03-25T06:33:27;6.90;;;1.60;;
23288;SDS011;11813;50.834;4.280;2023-03-25T06:35:53;9.70;;;2.53;;
23288;SDS011;11813;50.834;4.280;2023-03-25T06:38:18;10.20;;;2.57;;
23288;SDS011;11813;50.834;4.280;2023-03-25T06:40:45;8.50;;;1.80;;
23288;SDS011;11813;50.834;4.280;2023-03-25T06:43:11;8.87;;;1.70;;
23288;SDS011;11813;50.834;4.280;2023-03-25T06:45:38;12.13;;;2.43;;
23288;SDS011;11813;50.834;4.280;2023-03-25T06:48:03;12.23;;;2.03;;
23288;SDS011;11813;50.834;4.280;2023-03-25T06:50:30;14.90;;;1.90;;
23288;SDS011;11813;50.834;4.280;2023-03-25T06:52:56;6.83;;;1.63;;
23288;SDS011;11813;50.834;4.280;2023-03-25T06:55:22;16.50;;;2.30;;
23288;SDS011;11813;50.834;4.280;2023-03-25T06:57:47;14.97;;;1.90;;
23288;SDS011;11813;50.834;4.280;2023-03-25T07:00:13;7.53;;;1.57;;
23288;SDS011;11813;50.834;4.280;2023-03-25T07:02:44;10.07;;;2.37;;
23288;SDS011;11813;50.834;4.280;2023-03-25T07:05:10;8.67;;;2.77;;
23288;SDS011;11813;50.834;4.280;2023-03-25T07:07:35;15.60;;;2.60;;
23288;SDS011;11813;50.834;4.280;2023-03-25T07:10:01;10.53;;;2.23;;
23288;SDS011;11813;50.834;4.280;2023-03-25T07:12:27;15.83;;;1.83;;
23288;SDS011;11813;50.834;4.280;2023-03-25T07:14:53;8.57;;;1.93;;
23288;SDS011;11813;50.834;4.280;2023-03-25T07:17:21;12.43;;;2.03;;
23288;SDS011;11813;50.834;4.280;2023-03-25T07:19:47;6.13;;;1.70;;
23288;SDS011;11813;50.834;4.280;2023-03-25T07:22:13;10.70;;;2.10;;
23288;SDS011;11813;50.834;4.280;2023-03-25T07:24:38;15.10;;;2.40;;
23288;SDS011;11813;50.834;4.280;2023-03-25T07:27:04;12.97;;;2.03;;
23288;SDS011;11813;50.834;4.280;2023-03-25T07:29:29;9.77;;;2.07;;
23288;SDS011;11813;50.834;4.280;2023-03-25T07:31:55;10.30;;;2.20;;
23288;SDS011;11813;50.834;4.280;2023-03-25T07:34:21;12.13;;;2.33;;
23288;SDS011;11813;50.834;4.280;2023-03-25T07:36:47;10.10;;;2.70;;
23288;SDS011;11813;50.834;4.280;2023-03-25T07:39:12;13.33;;;2.23;;
23288;SDS011;11813;50.834;4.280;2023-03-25T07:41:38;9.00;;;2.77;;
23288;SDS011;11813;50.834;4.280;2023-03-25T07:44:04;10.83;;;1.90;;
23288;SDS011;11813;50.834;4.280;2023-03-25T07:46:30;14.70;;;2.23;;
23288;SDS011;11813;50.834;4.280;2023-03-25T07:48:55;13.13;;;1.97;;
23288;SDS011;11813;50.834;4.280;2023-03-25T07:51:21;15.33;;;2.27;;
23288;SDS011;11813;50.834;4.280;2023-03-25T07:53:47;11.20;;;2.47;;
23288;SDS011;11813;50.834;4.280;2023-03-25T07:56:12;13.00;;;2.73;;
23288;SDS011;11813;50.834;4.280;2023-03-25T07:58:38;17.50;;;2.57;;
23288;SDS011;11813;50.834;4.280;2023-03-25T08:01:04;15.63;;;2.57;;
23288;SDS011;11813;50.834;4.280;2023-03-25T08:03:31;19.20;;;2.83;;
23288;SDS011;11813;50.834;4.280;2023-03-25T08:05:58;12.17;;;2.50;;
23288;SDS011;11813;50.834;4.280;2023-03-25T08:08:25;14.73;;;2.17;;
23288;SDS011;11813;50.834;4.280;2023-03-25T08:10:54;17.13;;;2.70;;
23288;SDS011;11813;50.834;4.280;2023-03-25T08:13:19;17.37;;;2.40;;
23288;SDS011;11813;50.834;4.280;2023-03-25T08:15:45;25.43;;;3.43;;
23288;SDS011;11813;50.834;4.280;2023-03-25T08:18:11;20.27;;;2.53;;
23288;SDS011;11813;50.834;4.280;2023-03-25T08:20:36;16.33;;;2.73;;
23288;SDS011;11813;50.834;4.280;2023-03-25T08:23:02;14.80;;;2.30;;
23288;SDS011;11813;50.834;4.280;2023-03-25T08:25:28;18.40;;;2.80;;
23288;SDS011;11813;50.834;4.280;2023-03-25T08:27:54;13.50;;;2.93;;
23288;SDS011;11813;50.834;4.280;2023-03-25T08:30:20;12.40;;;3.07;;
23288;SDS011;11813;50.834;4.280;2023-03-25T08:32:46;20.30;;;2.60;;
23288;SDS011;11813;50.834;4.280;2023-03-25T08:35:18;14.50;;;2.53;;
23288;SDS011;11813;50.834;4.280;2023-03-25T08:37:45;16.83;;;2.97;;
23288;SDS011;11813;50.834;4.280;2023-03-25T08:40:11;11.10;;;4.10;;
23288;SDS011;11813;50.834;4.280;2023-03-25T08:42:38;13.77;;;2.23;;
23288;SDS011;11813;50.834;4.280;2023-03-25T08:45:04;14.57;;;2.03;;
23288;SDS011;11813;50.834;4.280;2023-03-25T08:47:30;12.20;;;2.23;;
23288;SDS011;11813;50.834;4.280;2023-03-25T08:49:56;18.57;;;3.40;;
23288;SDS011;11813;50.834;4.280;2023-03-25T08:52:21;12.50;;;2.67;;
23288;SDS011;11813;50.834;4.280;2023-03-25T08:54:47;18.50;;;3.40;;
23288;SDS011;11813;50.834;4.280;2023-03-25T08:57:13;29.90;;;3.23;;
23288;SDS011;11813;50.834;4.280;2023-03-25T08:59:38;12.70;;;2.57;;
23288;SDS011;11813;50.834;4.280;2023-03-25T09:02:04;8.10;;;2.47;;
23288;SDS011;11813;50.834;4.280;2023-03-25T09:04:30;15.37;;;2.60;;
23288;SDS011;11813;50.834;4.280;2023-03-25T09:06:56;17.63;;;2.97;;
23288;SDS011;11813;50.834;4.280;2023-03-25T09:09:21;15.00;;;2.70;;
23288;SDS011;11813;50.834;4.280;2023-03-25T09:11:47;13.80;;;2.80;;
23288;SDS011;11813;50.834;4.280;2023-03-25T09:14:13;15.40;;;3.27;;
23288;SDS011;11813;50.834;4.280;2023-03-25T09:16:39;12.60;;;3.77;;
23288;SDS011;11813;50.834;4.280;2023-03-25T09:19:06;12.93;;;3.17;;
23288;SDS011;11813;50.834;4.280;2023-03-25T09:21:32;18.97;;;2.60;;
23288;SDS011;11813;50.834;4.280;2023-03-25T09:23:58;23.83;;;3.60;;
23288;SDS011;11813;50.834;4.280;2023-03-25T09:26:23;17.47;;;2.80;;
23288;SDS011;11813;50.834;4.280;2023-03-25T09:28:50;21.47;;;4.03;;
23288;SDS011;11813;50.834;4.280;2023-03-25T09:31:16;21.87;;;3.90;;
23288;SDS011;11813;50.834;4.280;2023-03-25T09:33:42;13.77;;;2.73;;
23288;SDS011;11813;50.834;4.280;2023-03-25T09:36:08;14.40;;;2.93;;
23288;SDS011;11813;50.834;4.280;2023-03-25T09:38:33;17.40;;;3.40;;
23288;SDS011;11813;50.834;4.280;2023-03-25T09:41:00;12.03;;;2.40;;
23288;SDS011;11813;50.834;4.280;2023-03-25T09:46:23;19.17;;;3.17;;
23288;SDS011;11813;50.834;4.280;2023-03-25T09:48:49;15.80;;;2.40;;
23288;SDS011;11813;50.834;4.280;2023-03-25T09:51:23;17.70;;;3.33;;
23288;SDS011;11813;50.834;4.280;2023-03-25T09:56:26;13.23;;;2.53;;
23288;SDS011;11813;50.834;4.280;2023-03-25T10:04:58;9.13;;;1.87;;
23288;SDS011;11813;50.834;4.280;2023-03-25T10:10:31;27.10;;;3.20;;
23288;SDS011;11813;50.834;4.280;2023-03-25T10:13:11;15.97;;;3.03;;
23288;SDS011;11813;50.834;4.280;2023-03-25T10:16:00;27.03;;;4.93;;
23288;SDS011;11813;50.834;4.280;2023-03-25T10:23:36;12.73;;;2.87;;
23288;SDS011;11813;50.834;4.280;2023-03-25T10:28:57;15.97;;;3.00;;
23288;SDS011;11813;50.834;4.280;2023-03-25T10:31:31;18.47;;;3.30;;
23288;SDS011;11813;50.834;4.280;2023-03-25T10:34:04;20.00;;;2.80;;
23288;SDS011;11813;50.834;4.280;2023-03-25T10:36:39;12.13;;;2.80;;
23288;SDS011;11813;50.834;4.280;2023-03-25T10:39:15;14.83;;;2.83;;
23288;SDS011;11813;50.834;4.280;2023-03-25T10:41:56;9.40;;;2.60;;
23288;SDS011;11813;50.834;4.280;2023-03-25T10:44:43;14.30;;;3.27;;
23288;SDS011;11813;50.834;4.280;2023-03-25T10:47:14;14.47;;;2.37;;
23288;SDS011;11813;50.834;4.280;2023-03-25T10:49:42;12.83;;;1.93;;
23288;SDS011;11813;50.834;4.280;2023-03-25T10:52:10;10.37;;;2.17;;
23288;SDS011;11813;50.834;4.280;2023-03-25T10:54:38;14.10;;;2.87;;
23288;SDS011;11813;50.834;4.280;2023-03-25T10:57:08;16.93;;;2.13;;
23288;SDS011;11813;50.834;4.280;2023-03-25T10:59:42;21.03;;;2.87;;
23288;SDS011;11813;50.834;4.280;2023-03-25T11:02:30;16.83;;;3.20;;
23288;SDS011;11813;50.834;4.280;2023-03-25T11:05:01;14.47;;;2.67;;
23288;SDS011;11813;50.834;4.280;2023-03-25T11:07:35;20.03;;;3.40;;
23288;SDS011;11813;50.834;4.280;2023-03-25T11:10:15;17.53;;;2.80;;
23288;SDS011;11813;50.834;4.280;2023-03-25T11:12:43;10.03;;;2.57;;
23288;SDS011;11813;50.834;4.280;2023-03-25T11:15:16;11.97;;;3.10;;
23288;SDS011;11813;50.834;4.280;2023-03-25T11:17:45;12.47;;;2.73;;
23288;SDS011;11813;50.834;4.280;2023-03-25T11:20:19;14.67;;;2.10;;
23288;SDS011;11813;50.834;4.280;2023-03-25T11:22:50;14.50;;;2.47;;
23288;SDS011;11813;50.834;4.280;2023-03-25T11:25:18;9.97;;;2.40;;
23288;SDS011;11813;50.834;4.280;2023-03-25T11:27:57;16.70;;;2.40;;
23288;SDS011;11813;50.834;4.280;2023-03-25T11:30:25;9.30;;;1.97;;
23288;SDS011;11813;50.834;4.280;2023-03-25T11:33:04;12.10;;;2.30;;
23288;SDS011;11813;50.834;4.280;2023-03-25T11:35:37;14.50;;;2.43;;
23288;SDS011;11813;50.834;4.280;2023-03-25T11:38:21;8.23;;;1.97;;
23288;SDS011;11813;50.834;4.280;2023-03-25T11:40:54;17.17;;;2.43;;
23288;SDS011;11813;50.834;4.280;2023-03-25T11:43:21;14.87;;;2.27;;
23288;SDS011;11813;50.834;4.280;2023-03-25T11:45:50;11.60;;;1.80;;
23288;SDS011;11813;50.834;4.280;2023-03-25T11:48:17;11.30;;;1.90;;
23288;SDS011;11813;50.834;4.280;2023-03-25T11:50:46;7.20;;;1.87;;
23288;SDS011;11813;50.834;4.280;2023-03-25T11:53:21;12.40;;;1.87;;
23288;SDS011;11813;50.834;4.280;2023-03-25T11:55:52;12.87;;;2.57;;
23288;SDS011;11813;50.834;4.280;2023-03-25T11:58:21;13.80;;;2.40;;
23288;SDS011;11813;50.834;4.280;2023-03-25T12:01:18;15.13;;;2.77;;
23288;SDS011;11813;50.834;4.280;2023-03-25T12:03:44;13.43;;;2.17;;
23288;SDS011;11813;50.834;4.280;2023-03-25T12:08:43;15.43;;;3.00;;
23288;SDS011;11813;50.834;4.280;2023-03-25T12:11:16;9.47;;;2.27;;
23288;SDS011;11813;50.834;4.280;2023-03-25T12:17:49;12.60;;;2.50;;
23288;SDS011;11813;50.834;4.280;2023-03-25T12:34:17;11.20;;;2.40;;
23288;SDS011;11813;50.834;4.280;2023-03-25T12:40:13;18.07;;;3.20;;
23288;SDS011;11813;50.834;4.280;2023-03-25T12:45:42;15.30;;;2.33;;
23288;SDS011;11813;50.834;4.280;2023-03-25T12:48:39;17.67;;;3.13;;
23288;SDS011;11813;50.834;4.280;2023-03-25T12:51:23;10.50;;;1.90;;
23288;SDS011;11813;50.834;4.280;2023-03-25T13:05:18;15.83;;;2.33;;
23288;SDS011;11813;50.834;4.280;2023-03-25T13:10:47;12.80;;;2.30;;
23288;SDS011;11813;50.834;4.280;2023-03-25T13:13:22;14.37;;;2.63;;
23288;SDS011;11813;50.834;4.280;2023-03-25T13:16:06;10.53;;;2.10;;
23288;SDS011;11813;50.834;4.280;2023-03-25T13:21:06;13.50;;;2.20;;
23288;SDS011;11813;50.834;4.280;2023-03-25T13:23:34;13.40;;;2.73;;
23288;SDS011;11813;50.834;4.280;2023-03-25T13:26:07;8.83;;;1.47;;
23288;SDS011;11813;50.834;4.280;2023-03-25T13:31:14;12.37;;;2.87;;
23288;SDS011;11813;50.834;4.280;2023-03-25T13:33:46;16.07;;;3.30;;
23288;SDS011;11813;50.834;4.280;2023-03-25T13:38:52;14.07;;;2.40;;
23288;SDS011;11813;50.834;4.280;2023-03-25T13:41:23;14.23;;;2.50;;
23288;SDS011;11813;50.834;4.280;2023-03-25T13:44:07;10.17;;;2.30;;
23288;SDS011;11813;50.834;4.280;2023-03-25T13:49:15;8.00;;;1.90;;
23288;SDS011;11813;50.834;4.280;2023-03-25T13:51:42;8.13;;;2.10;;
23288;SDS011;11813;50.834;4.280;2023-03-25T13:54:19;15.60;;;2.07;;
23288;SDS011;11813;50.834;4.280;2023-03-25T14:02:27;8.93;;;1.80;;
23288;SDS011;11813;50.834;4.280;2023-03-25T14:11:20;11.97;;;2.00;;
23288;SDS011;11813;50.834;4.280;2023-03-25T14:13:37;12.73;;;2.60;;
23288;SDS011;11813;50.834;4.280;2023-03-25T14:16:09;12.33;;;2.37;;
23288;SDS011;11813;50.834;4.280;2023-03-25T14:18:42;8.40;;;2.33;;
23288;SDS011;11813;50.834;4.280;2023-03-25T14:21:13;11.13;;;2.27;;
23288;SDS011;11813;50.834;4.280;2023-03-25T14:24:04;7.17;;;2.03;;
23288;SDS011;11813;50.834;4.280;2023-03-25T14:26:41;6.70;;;2.10;;
23288;SDS011;11813;50.834;4.280;2023-03-25T14:29:18;13.77;;;2.80;;
23288;SDS011;11813;50.834;4.280;2023-03-25T14:34:31;5.00;;;1.40;;
23288;SDS011;11813;50.834;4.280;2023-03-25T14:44:53;10.57;;;2.03;;
23288;SDS011;11813;50.834;4.280;2023-03-25T14:52:45;9.80;;;1.90;;
23288;SDS011;11813;50.834;4.280;2023-03-25T14:57:58;11.80;;;1.93;;
23288;SDS011;11813;50.834;4.280;2023-03-25T15:00:33;15.53;;;1.90;;
23288;SDS011;11813;50.834;4.280;2023-03-25T15:03:09;13.30;;;3.07;;
23288;SDS011;11813;50.834;4.280;2023-03-25T15:05:38;5.37;;;1.40;;
23288;SDS011;11813;50.834;4.280;2023-03-25T15:10:43;13.93;;;1.83;;
23288;SDS011;11813;50.834;4.280;2023-03-25T15:13:25;10.10;;;1.83;;
23288;SDS011;11813;50.834;4.280;2023-03-25T15:16:02;5.63;;;1.90;;
23288;SDS011;11813;50.834;4.280;2023-03-25T15:21:17;12.33;;;2.33;;
23288;SDS011;11813;50.834;4.280;2023-03-25T15:31:30;11.13;;;2.27;;
23288;SDS011;11813;50.834;4.280;2023-03-25T15:42:45;8.57;;;2.70;;
23288;SDS011;11813;50.834;4.280;2023-03-25T15:45:37;13.27;;;2.13;;
23288;SDS011;11813;50.834;4.280;2023-03-25T15:51:18;16.80;;;2.90;;
23288;SDS011;11813;50.834;4.280;2023-03-25T15:54:19;12.07;;;2.50;;
23288;SDS011;11813;50.834;4.280;2023-03-25T15:56:59;11.67;;;2.33;;
23288;SDS011;11813;50.834;4.280;2023-03-25T16:02:02;11.77;;;2.53;;
23288;SDS011;11813;50.834;4.280;2023-03-25T16:04:39;16.67;;;2.07;;
23288;SDS011;11813;50.834;4.280;2023-03-25T16:07:08;10.33;;;2.37;;
23288;SDS011;11813;50.834;4.280;2023-03-25T16:09:39;10.87;;;2.70;;
23288;SDS011;11813;50.834;4.280;2023-03-25T16:12:08;10.37;;;2.50;;
23288;SDS011;11813;50.834;4.280;2023-03-25T16:14:35;18.63;;;3.00;;
23288;SDS011;11813;50.834;4.280;2023-03-25T16:17:02;16.87;;;2.47;;
23288;SDS011;11813;50.834;4.280;2023-03-25T16:22:48;11.07;;;2.70;;
23288;SDS011;11813;50.834;4.280;2023-03-25T16:25:00;14.87;;;2.43;;
23288;SDS011;11813;50.834;4.280;2023-03-25T16:27:35;14.80;;;2.40;;
23288;SDS011;11813;50.834;4.280;2023-03-25T16:30:06;18.47;;;2.27;;
23288;SDS011;11813;50.834;4.280;2023-03-25T16:32:43;9.73;;;2.07;;
23288;SDS011;11813;50.834;4.280;2023-03-25T16:35:25;8.80;;;2.20;;
23288;SDS011;11813;50.834;4.280;2023-03-25T16:37:55;14.60;;;2.33;;
23288;SDS011;11813;50.834;4.280;2023-03-25T16:40:28;9.87;;;2.00;;
23288;SDS011;11813;50.834;4.280;2023-03-25T16:43:06;19.70;;;3.30;;
23288;SDS011;11813;50.834;4.280;2023-03-25T16:45:38;17.30;;;3.30;;
23288;SDS011;11813;50.834;4.280;2023-03-25T16:48:05;17.60;;;2.57;;
23288;SDS011;11813;50.834;4.280;2023-03-25T16:50:37;16.70;;;3.13;;
23288;SDS011;11813;50.834;4.280;2023-03-25T16:53:03;13.13;;;2.50;;
23288;SDS011;11813;50.834;4.280;2023-03-25T16:55:47;26.63;;;4.00;;
23288;SDS011;11813;50.834;4.280;2023-03-25T16:58:26;16.20;;;2.87;;
23288;SDS011;11813;50.834;4.280;2023-03-25T17:00:53;12.10;;;2.47;;
23288;SDS011;11813;50.834;4.280;2023-03-25T17:06:16;19.20;;;3.27;;
23288;SDS011;11813;50.834;4.280;2023-03-25T17:08:55;18.37;;;3.43;;
23288;SDS011;11813;50.834;4.280;2023-03-25T17:11:25;21.77;;;3.00;;
23288;SDS011;11813;50.834;4.280;2023-03-25T17:13:59;18.70;;;3.33;;
23288;SDS011;11813;50.834;4.280;2023-03-25T17:16:38;15.57;;;2.53;;
23288;SDS011;11813;50.834;4.280;2023-03-25T17:19:06;20.97;;;3.27;;
23288;SDS011;11813;50.834;4.280;2023-03-25T17:21:32;14.47;;;2.90;;
23288;SDS011;11813;50.834;4.280;2023-03-25T17:24:00;19.27;;;3.23;;
23288;SDS011;11813;50.834;4.280;2023-03-25T17:26:31;15.43;;;3.33;;
23288;SDS011;11813;50.834;4.280;2023-03-25T17:29:00;20.63;;;3.50;;
23288;SDS011;11813;50.834;4.280;2023-03-25T17:34:12;9.27;;;2.77;;
23288;SDS011;11813;50.834;4.280;2023-03-25T17:36:49;13.87;;;3.07;;
23288;SDS011;11813;50.834;4.280;2023-03-25T17:41:53;16.47;;;2.80;;
23288;SDS011;11813;50.834;4.280;2023-03-25T17:44:22;21.17;;;3.20;;
23288;SDS011;11813;50.834;4.280;2023-03-25T17:46:53;12.97;;;3.33;;
23288;SDS011;11813;50.834;4.280;2023-03-25T17:49:19;13.80;;;3.03;;
23288;SDS011;11813;50.834;4.280;2023-03-25T17:51:45;15.37;;;2.63;;
23288;SDS011;11813;50.834;4.280;2023-03-25T17:54:10;20.67;;;4.37;;
23288;SDS011;11813;50.834;4.280;2023-03-25T17:56:37;16.47;;;3.00;;
23288;SDS011;11813;50.834;4.280;2023-03-25T17:59:04;16.87;;;2.63;;